KCNO/CNO METAR and TAF weather

Enter ICAO airport designator
Station Type Date Time Source
KCNO METAR 2018/04/26 14:53 UTC NOAA

KCNO 261453Z 25004KT 2 1/2SM HZ BKN008 13/11 A3005 RMK AO2 SLP172 T01330106 53015


Station Type Date Time Source
KCNO Decoded METAR 2018/04/26 14:53 UTC NOAA

CHINO AIRPORT, CA, United States (KCNO) 33-58N 117-38W 207M
Apr 26, 2018 - 10:53 AM EDT / 2018.04.26 1453 UTC
Wind: from the WSW (250 degrees) at 5 MPH (4 KT):0
Visibility: 2 1/2 mile(s):0
Sky conditions: mostly cloudy
Weather: haze
Temperature: 55.9 F (13.3 C)
Dew Point: 51.1 F (10.6 C)
Relative Humidity: 83%
Pressure (altimeter): 30.05 in. Hg (1017 hPa)
Pressure tendency: 0.04 inches (1.5 hPa) higher than three hours ago
ob: KCNO 261453Z 25004KT 2 1/2SM HZ BKN008 13/11 A3005 RMK AO2 SLP172 T01330106 53015
cycle: 15

Station Type Date Time Source
KCNO TAF UTC NOAA

Error!


Example: see airport list